sensor_id;sensor_type;location;lat;lon;timestamp;P1;durP1;ratioP1;P2;durP2;ratioP2
57848;SDS011;68645;44.762;21.516;2023-09-12T00:00:22;26.48;;;16.95;;
57848;SDS011;68645;44.762;21.516;2023-09-12T00:02:48;24.95;;;16.23;;
57848;SDS011;68645;44.762;21.516;2023-09-12T00:05:14;30.40;;;17.30;;
57848;SDS011;68645;44.762;21.516;2023-09-12T00:07:40;29.35;;;17.67;;
57848;SDS011;68645;44.762;21.516;2023-09-12T00:10:06;34.10;;;18.73;;
57848;SDS011;68645;44.762;21.516;2023-09-12T00:12:33;30.10;;;18.15;;
57848;SDS011;68645;44.762;21.516;2023-09-12T00:14:59;29.52;;;17.73;;
57848;SDS011;68645;44.762;21.516;2023-09-12T00:17:25;29.02;;;19.25;;
57848;SDS011;68645;44.762;21.516;2023-09-12T00:19:52;32.50;;;20.92;;
57848;SDS011;68645;44.762;21.516;2023-09-12T00:22:18;37.67;;;23.15;;
57848;SDS011;68645;44.762;21.516;2023-09-12T00:24:44;36.53;;;22.23;;
57848;SDS011;68645;44.762;21.516;2023-09-12T00:27:10;35.65;;;22.25;;
57848;SDS011;68645;44.762;21.516;2023-09-12T00:29:36;34.33;;;22.48;;
57848;SDS011;68645;44.762;21.516;2023-09-12T00:32:02;36.72;;;26.27;;
57848;SDS011;68645;44.762;21.516;2023-09-12T00:34:28;38.60;;;29.52;;
57848;SDS011;68645;44.762;21.516;2023-09-12T00:36:55;42.80;;;28.77;;
57848;SDS011;68645;44.762;21.516;2023-09-12T00:39:21;40.40;;;31.20;;
57848;SDS011;68645;44.762;21.516;2023-09-12T00:41:47;40.42;;;29.05;;
57848;SDS011;68645;44.762;21.516;2023-09-12T00:44:13;40.13;;;27.77;;
57848;SDS011;68645;44.762;21.516;2023-09-12T00:46:39;37.92;;;28.40;;
57848;SDS011;68645;44.762;21.516;2023-09-12T00:49:06;47.90;;;31.45;;
57848;SDS011;68645;44.762;21.516;2023-09-12T00:51:32;39.35;;;28.30;;
57848;SDS011;68645;44.762;21.516;2023-09-12T00:53:59;46.63;;;28.15;;
57848;SDS011;68645;44.762;21.516;2023-09-12T00:56:26;36.97;;;24.83;;
57848;SDS011;68645;44.762;21.516;2023-09-12T00:58:52;33.72;;;22.90;;
57848;SDS011;68645;44.762;21.516;2023-09-12T01:01:18;33.38;;;20.17;;
57848;SDS011;68645;44.762;21.516;2023-09-12T01:03:45;28.88;;;17.75;;
57848;SDS011;68645;44.762;21.516;2023-09-12T01:06:12;31.83;;;19.88;;
57848;SDS011;68645;44.762;21.516;2023-09-12T01:08:38;32.47;;;19.23;;
57848;SDS011;68645;44.762;21.516;2023-09-12T01:11:04;28.08;;;16.60;;
57848;SDS011;68645;44.762;21.516;2023-09-12T01:13:30;29.95;;;17.60;;
57848;SDS011;68645;44.762;21.516;2023-09-12T01:15:57;29.27;;;18.65;;
57848;SDS011;68645;44.762;21.516;2023-09-12T01:18:23;30.48;;;18.45;;
57848;SDS011;68645;44.762;21.516;2023-09-12T01:28:49;30.13;;;19.02;;
57848;SDS011;68645;44.762;21.516;2023-09-12T01:31:17;31.80;;;20.13;;
57848;SDS011;68645;44.762;21.516;2023-09-12T01:33:44;30.42;;;18.88;;
57848;SDS011;68645;44.762;21.516;2023-09-12T01:36:10;40.60;;;21.30;;
57848;SDS011;68645;44.762;21.516;2023-09-12T01:38:36;32.10;;;20.20;;
57848;SDS011;68645;44.762;21.516;2023-09-12T01:41:02;33.00;;;21.30;;
57848;SDS011;68645;44.762;21.516;2023-09-12T01:43:28;35.50;;;20.45;;
57848;SDS011;68645;44.762;21.516;2023-09-12T01:45:57;32.80;;;20.02;;
57848;SDS011;68645;44.762;21.516;2023-09-12T01:48:28;34.83;;;22.77;;
57848;SDS011;68645;44.762;21.516;2023-09-12T01:50:58;35.40;;;21.15;;
57848;SDS011;68645;44.762;21.516;2023-09-12T01:53:25;34.47;;;20.73;;
57848;SDS011;68645;44.762;21.516;2023-09-12T01:55:51;30.02;;;19.95;;
57848;SDS011;68645;44.762;21.516;2023-09-12T01:58:17;32.95;;;19.70;;
57848;SDS011;68645;44.762;21.516;2023-09-12T02:00:43;29.20;;;19.67;;
57848;SDS011;68645;44.762;21.516;2023-09-12T02:03:09;29.02;;;19.02;;
57848;SDS011;68645;44.762;21.516;2023-09-12T02:05:35;26.00;;;19.35;;
57848;SDS011;68645;44.762;21.516;2023-09-12T02:08:02;27.45;;;17.75;;
57848;SDS011;68645;44.762;21.516;2023-09-12T02:10:30;22.77;;;17.23;;
57848;SDS011;68645;44.762;21.516;2023-09-12T02:12:57;22.17;;;17.13;;
57848;SDS011;68645;44.762;21.516;2023-09-12T02:15:23;25.00;;;16.55;;
57848;SDS011;68645;44.762;21.516;2023-09-12T02:17:49;25.42;;;17.17;;
57848;SDS011;68645;44.762;21.516;2023-09-12T02:20:15;23.33;;;17.13;;
57848;SDS011;68645;44.762;21.516;2023-09-12T02:22:42;25.38;;;16.92;;
57848;SDS011;68645;44.762;21.516;2023-09-12T02:25:08;23.92;;;16.33;;
57848;SDS011;68645;44.762;21.516;2023-09-12T02:27:35;18.17;;;15.75;;
57848;SDS011;68645;44.762;21.516;2023-09-12T02:30:01;20.25;;;15.55;;
57848;SDS011;68645;44.762;21.516;2023-09-12T02:32:28;19.95;;;16.10;;
57848;SDS011;68645;44.762;21.516;2023-09-12T02:34:54;22.25;;;15.98;;
57848;SDS011;68645;44.762;21.516;2023-09-12T02:37:22;24.48;;;16.25;;
57848;SDS011;68645;44.762;21.516;2023-09-12T02:39:48;27.08;;;16.60;;
57848;SDS011;68645;44.762;21.516;2023-09-12T02:42:14;23.13;;;15.73;;
57848;SDS011;68645;44.762;21.516;2023-09-12T02:44:40;19.98;;;15.07;;
57848;SDS011;68645;44.762;21.516;2023-09-12T02:47:07;24.05;;;15.60;;
57848;SDS011;68645;44.762;21.516;2023-09-12T02:49:33;23.13;;;15.35;;
57848;SDS011;68645;44.762;21.516;2023-09-12T02:51:59;23.38;;;15.10;;
57848;SDS011;68645;44.762;21.516;2023-09-12T02:54:25;19.42;;;14.85;;
57848;SDS011;68645;44.762;21.516;2023-09-12T02:56:51;19.98;;;15.20;;
57848;SDS011;68645;44.762;21.516;2023-09-12T02:59:17;20.50;;;14.73;;
57848;SDS011;68645;44.762;21.516;2023-09-12T03:01:44;22.92;;;14.82;;
57848;SDS011;68645;44.762;21.516;2023-09-12T03:04:10;20.77;;;14.52;;
57848;SDS011;68645;44.762;21.516;2023-09-12T03:06:36;21.58;;;14.00;;
57848;SDS011;68645;44.762;21.516;2023-09-12T03:09:02;26.10;;;16.05;;
57848;SDS011;68645;44.762;21.516;2023-09-12T03:11:29;21.08;;;15.48;;
57848;SDS011;68645;44.762;21.516;2023-09-12T03:13:55;18.70;;;14.68;;
57848;SDS011;68645;44.762;21.516;2023-09-12T03:16:21;22.88;;;15.18;;
57848;SDS011;68645;44.762;21.516;2023-09-12T03:18:49;25.00;;;16.15;;
57848;SDS011;68645;44.762;21.516;2023-09-12T03:21:15;23.92;;;15.75;;
57848;SDS011;68645;44.762;21.516;2023-09-12T03:23:42;23.80;;;16.48;;
57848;SDS011;68645;44.762;21.516;2023-09-12T03:26:08;23.35;;;16.33;;
57848;SDS011;68645;44.762;21.516;2023-09-12T03:28:34;22.38;;;15.98;;
57848;SDS011;68645;44.762;21.516;2023-09-12T03:31:03;21.27;;;15.93;;
57848;SDS011;68645;44.762;21.516;2023-09-12T03:33:30;20.90;;;15.18;;
57848;SDS011;68645;44.762;21.516;2023-09-12T03:35:56;20.77;;;15.25;;
57848;SDS011;68645;44.762;21.516;2023-09-12T03:38:22;23.20;;;15.82;;
57848;SDS011;68645;44.762;21.516;2023-09-12T03:40:48;27.27;;;15.77;;
57848;SDS011;68645;44.762;21.516;2023-09-12T03:43:14;22.45;;;16.48;;
57848;SDS011;68645;44.762;21.516;2023-09-12T03:45:40;29.58;;;19.30;;
57848;SDS011;68645;44.762;21.516;2023-09-12T03:48:06;27.48;;;18.33;;
57848;SDS011;68645;44.762;21.516;2023-09-12T03:50:32;23.58;;;16.77;;
57848;SDS011;68645;44.762;21.516;2023-09-12T03:52:58;23.85;;;16.95;;
57848;SDS011;68645;44.762;21.516;2023-09-12T03:55:25;27.95;;;16.92;;
57848;SDS011;68645;44.762;21.516;2023-09-12T03:57:51;30.60;;;16.48;;
57848;SDS011;68645;44.762;21.516;2023-09-12T04:00:17;27.13;;;16.95;;
57848;SDS011;68645;44.762;21.516;2023-09-12T04:02:43;27.77;;;17.45;;
57848;SDS011;68645;44.762;21.516;2023-09-12T04:05:09;26.67;;;17.58;;
57848;SDS011;68645;44.762;21.516;2023-09-12T04:07:35;24.00;;;17.05;;
57848;SDS011;68645;44.762;21.516;2023-09-12T04:10:01;28.63;;;17.83;;
57848;SDS011;68645;44.762;21.516;2023-09-12T04:12:28;24.63;;;18.00;;
57848;SDS011;68645;44.762;21.516;2023-09-12T04:14:54;25.98;;;18.20;;
57848;SDS011;68645;44.762;21.516;2023-09-12T04:17:20;25.73;;;17.42;;
57848;SDS011;68645;44.762;21.516;2023-09-12T04:19:46;29.48;;;18.55;;
57848;SDS011;68645;44.762;21.516;2023-09-12T04:22:13;39.47;;;21.33;;
57848;SDS011;68645;44.762;21.516;2023-09-12T04:24:39;28.65;;;19.10;;
57848;SDS011;68645;44.762;21.516;2023-09-12T04:27:05;25.77;;;18.85;;
57848;SDS011;68645;44.762;21.516;2023-09-12T04:29:32;26.25;;;18.95;;
57848;SDS011;68645;44.762;21.516;2023-09-12T04:32:02;26.67;;;18.38;;
57848;SDS011;68645;44.762;21.516;2023-09-12T04:34:29;25.92;;;17.88;;
57848;SDS011;68645;44.762;21.516;2023-09-12T04:36:55;24.27;;;17.17;;
57848;SDS011;68645;44.762;21.516;2023-09-12T04:39:22;28.20;;;18.30;;
57848;SDS011;68645;44.762;21.516;2023-09-12T04:41:48;39.20;;;20.70;;
57848;SDS011;68645;44.762;21.516;2023-09-12T04:44:14;34.20;;;20.05;;
57848;SDS011;68645;44.762;21.516;2023-09-12T04:46:40;32.47;;;19.55;;
57848;SDS011;68645;44.762;21.516;2023-09-12T04:49:07;31.27;;;19.52;;
57848;SDS011;68645;44.762;21.516;2023-09-12T04:51:33;42.72;;;21.65;;
57848;SDS011;68645;44.762;21.516;2023-09-12T04:53:59;41.45;;;20.15;;
57848;SDS011;68645;44.762;21.516;2023-09-12T04:56:26;32.88;;;19.30;;
57848;SDS011;68645;44.762;21.516;2023-09-12T04:58:52;37.03;;;19.85;;
57848;SDS011;68645;44.762;21.516;2023-09-12T05:01:18;41.78;;;19.95;;
57848;SDS011;68645;44.762;21.516;2023-09-12T05:03:44;41.35;;;21.48;;
57848;SDS011;68645;44.762;21.516;2023-09-12T05:06:11;32.90;;;19.05;;
57848;SDS011;68645;44.762;21.516;2023-09-12T05:08:37;34.92;;;19.30;;
57848;SDS011;68645;44.762;21.516;2023-09-12T05:11:04;35.03;;;19.27;;
57848;SDS011;68645;44.762;21.516;2023-09-12T05:13:30;33.65;;;20.00;;
57848;SDS011;68645;44.762;21.516;2023-09-12T05:15:56;36.67;;;19.70;;
57848;SDS011;68645;44.762;21.516;2023-09-12T05:18:22;29.80;;;18.38;;
57848;SDS011;68645;44.762;21.516;2023-09-12T05:20:49;31.25;;;18.27;;
57848;SDS011;68645;44.762;21.516;2023-09-12T05:23:15;27.42;;;17.25;;
57848;SDS011;68645;44.762;21.516;2023-09-12T05:25:41;27.08;;;16.85;;
57848;SDS011;68645;44.762;21.516;2023-09-12T05:28:07;26.38;;;16.10;;
57848;SDS011;68645;44.762;21.516;2023-09-12T05:30:33;25.90;;;16.10;;
57848;SDS011;68645;44.762;21.516;2023-09-12T05:33:00;34.50;;;17.45;;
57848;SDS011;68645;44.762;21.516;2023-09-12T05:35:26;26.67;;;17.63;;
57848;SDS011;68645;44.762;21.516;2023-09-12T05:37:52;29.10;;;16.10;;
57848;SDS011;68645;44.762;21.516;2023-09-12T05:40:18;27.55;;;16.40;;
57848;SDS011;68645;44.762;21.516;2023-09-12T05:42:45;26.63;;;15.55;;
57848;SDS011;68645;44.762;21.516;2023-09-12T05:45:11;24.58;;;15.48;;
57848;SDS011;68645;44.762;21.516;2023-09-12T05:47:37;30.08;;;14.93;;
57848;SDS011;68645;44.762;21.516;2023-09-12T05:50:03;24.65;;;14.93;;
57848;SDS011;68645;44.762;21.516;2023-09-12T05:52:32;23.13;;;13.75;;
57848;SDS011;68645;44.762;21.516;2023-09-12T05:54:58;20.10;;;11.40;;
57848;SDS011;68645;44.762;21.516;2023-09-12T05:57:24;25.83;;;12.05;;
57848;SDS011;68645;44.762;21.516;2023-09-12T05:59:50;17.52;;;11.50;;
57848;SDS011;68645;44.762;21.516;2023-09-12T06:02:16;22.40;;;11.90;;
57848;SDS011;68645;44.762;21.516;2023-09-12T06:04:43;17.35;;;10.07;;
57848;SDS011;68645;44.762;21.516;2023-09-12T06:07:09;16.02;;;10.05;;
57848;SDS011;68645;44.762;21.516;2023-09-12T06:09:36;15.15;;;10.10;;
57848;SDS011;68645;44.762;21.516;2023-09-12T06:12:02;17.20;;;10.77;;
57848;SDS011;68645;44.762;21.516;2023-09-12T06:14:28;16.60;;;11.25;;
57848;SDS011;68645;44.762;21.516;2023-09-12T06:16:55;31.85;;;17.02;;
57848;SDS011;68645;44.762;21.516;2023-09-12T06:19:21;30.48;;;15.75;;
57848;SDS011;68645;44.762;21.516;2023-09-12T06:21:47;33.70;;;16.95;;
57848;SDS011;68645;44.762;21.516;2023-09-12T06:24:18;24.35;;;14.07;;
57848;SDS011;68645;44.762;21.516;2023-09-12T06:26:46;48.92;;;19.35;;
57848;SDS011;68645;44.762;21.516;2023-09-12T06:29:12;37.63;;;19.65;;
57848;SDS011;68645;44.762;21.516;2023-09-12T06:31:39;36.17;;;19.50;;
57848;SDS011;68645;44.762;21.516;2023-09-12T06:34:06;34.25;;;18.52;;
57848;SDS011;68645;44.762;21.516;2023-09-12T06:36:32;37.35;;;22.15;;
57848;SDS011;68645;44.762;21.516;2023-09-12T06:38:59;46.13;;;22.70;;
57848;SDS011;68645;44.762;21.516;2023-09-12T06:41:26;45.95;;;23.52;;
57848;SDS011;68645;44.762;21.516;2023-09-12T06:43:53;54.65;;;27.83;;
57848;SDS011;68645;44.762;21.516;2023-09-12T06:46:22;46.17;;;23.77;;
57848;SDS011;68645;44.762;21.516;2023-09-12T06:48:48;54.17;;;24.95;;
57848;SDS011;68645;44.762;21.516;2023-09-12T06:51:15;58.50;;;31.67;;
57848;SDS011;68645;44.762;21.516;2023-09-12T06:53:41;55.65;;;26.42;;
57848;SDS011;68645;44.762;21.516;2023-09-12T06:56:08;55.83;;;27.60;;
57848;SDS011;68645;44.762;21.516;2023-09-12T06:58:34;30.10;;;17.73;;
57848;SDS011;68645;44.762;21.516;2023-09-12T07:01:01;42.53;;;22.90;;
57848;SDS011;68645;44.762;21.516;2023-09-12T07:03:28;46.40;;;23.23;;
57848;SDS011;68645;44.762;21.516;2023-09-12T07:05:54;50.35;;;24.42;;
57848;SDS011;68645;44.762;21.516;2023-09-12T07:08:20;58.20;;;30.30;;
57848;SDS011;68645;44.762;21.516;2023-09-12T07:10:47;67.22;;;30.85;;
57848;SDS011;68645;44.762;21.516;2023-09-12T07:13:13;57.63;;;30.55;;
57848;SDS011;68645;44.762;21.516;2023-09-12T07:15:39;60.45;;;30.20;;
57848;SDS011;68645;44.762;21.516;2023-09-12T07:18:06;58.20;;;30.17;;
57848;SDS011;68645;44.762;21.516;2023-09-12T07:20:33;56.05;;;29.88;;
57848;SDS011;68645;44.762;21.516;2023-09-12T07:23:00;52.20;;;27.58;;
57848;SDS011;68645;44.762;21.516;2023-09-12T07:25:26;52.90;;;28.40;;
57848;SDS011;68645;44.762;21.516;2023-09-12T07:27:52;44.80;;;22.80;;
57848;SDS011;68645;44.762;21.516;2023-09-12T07:30:18;46.22;;;24.92;;
57848;SDS011;68645;44.762;21.516;2023-09-12T07:32:45;46.13;;;24.48;;
57848;SDS011;68645;44.762;21.516;2023-09-12T07:35:11;35.53;;;21.23;;
57848;SDS011;68645;44.762;21.516;2023-09-12T07:37:37;29.70;;;17.30;;
57848;SDS011;68645;44.762;21.516;2023-09-12T07:40:03;25.73;;;12.65;;
57848;SDS011;68645;44.762;21.516;2023-09-12T07:42:35;23.93;;;14.30;;
57848;SDS011;68645;44.762;21.516;2023-09-12T07:45:02;26.10;;;14.38;;
57848;SDS011;68645;44.762;21.516;2023-09-12T07:47:31;27.00;;;15.53;;
57848;SDS011;68645;44.762;21.516;2023-09-12T07:49:58;34.58;;;14.93;;
57848;SDS011;68645;44.762;21.516;2023-09-12T07:52:25;30.67;;;15.30;;
57848;SDS011;68645;44.762;21.516;2023-09-12T07:54:52;52.08;;;34.50;;
57848;SDS011;68645;44.762;21.516;2023-09-12T07:59:48;48.63;;;34.63;;
57848;SDS011;68645;44.762;21.516;2023-09-12T08:11:58;33.70;;;23.38;;
57848;SDS011;68645;44.762;21.516;2023-09-12T08:14:24;30.27;;;21.77;;
57848;SDS011;68645;44.762;21.516;2023-09-12T08:16:50;30.77;;;22.30;;
57848;SDS011;68645;44.762;21.516;2023-09-12T08:19:16;26.00;;;19.23;;
57848;SDS011;68645;44.762;21.516;2023-09-12T08:21:42;30.23;;;18.05;;
57848;SDS011;68645;44.762;21.516;2023-09-12T08:24:10;142.88;;;27.65;;
57848;SDS011;68645;44.762;21.516;2023-09-12T08:26:37;31.20;;;19.80;;
57848;SDS011;68645;44.762;21.516;2023-09-12T08:36:21;31.73;;;17.45;;
57848;SDS011;68645;44.762;21.516;2023-09-12T08:38:47;25.05;;;15.82;;
57848;SDS011;68645;44.762;21.516;2023-09-12T08:41:13;25.20;;;15.27;;
57848;SDS011;68645;44.762;21.516;2023-09-12T08:43:39;22.52;;;15.30;;
57848;SDS011;68645;44.762;21.516;2023-09-12T08:46:05;25.20;;;16.17;;
57848;SDS011;68645;44.762;21.516;2023-09-12T08:48:32;23.42;;;14.48;;
57848;SDS011;68645;44.762;21.516;2023-09-12T08:50:58;24.83;;;14.85;;
57848;SDS011;68645;44.762;21.516;2023-09-12T08:53:26;24.58;;;14.85;;
57848;SDS011;68645;44.762;21.516;2023-09-12T08:55:52;21.35;;;14.27;;
57848;SDS011;68645;44.762;21.516;2023-09-12T08:58:18;22.63;;;12.65;;
57848;SDS011;68645;44.762;21.516;2023-09-12T09:00:46;23.40;;;13.60;;
57848;SDS011;68645;44.762;21.516;2023-09-12T09:03:12;24.65;;;13.02;;
57848;SDS011;68645;44.762;21.516;2023-09-12T09:05:39;19.60;;;12.18;;
57848;SDS011;68645;44.762;21.516;2023-09-12T09:08:06;16.25;;;8.35;;
57848;SDS011;68645;44.762;21.516;2023-09-12T09:10:32;20.50;;;9.75;;
57848;SDS011;68645;44.762;21.516;2023-09-12T09:12:58;12.43;;;5.57;;
57848;SDS011;68645;44.762;21.516;2023-09-12T09:15:25;12.45;;;5.32;;
57848;SDS011;68645;44.762;21.516;2023-09-12T09:17:52;10.90;;;4.70;;
57848;SDS011;68645;44.762;21.516;2023-09-12T09:22:55;6.40;;;3.67;;
57848;SDS011;68645;44.762;21.516;2023-09-12T09:25:21;7.68;;;3.38;;
57848;SDS011;68645;44.762;21.516;2023-09-12T09:27:48;9.63;;;3.78;;
57848;SDS011;68645;44.762;21.516;2023-09-12T09:30:14;8.05;;;4.60;;
57848;SDS011;68645;44.762;21.516;2023-09-12T09:32:40;10.38;;;4.03;;
57848;SDS011;68645;44.762;21.516;2023-09-12T09:35:07;5.13;;;3.03;;
57848;SDS011;68645;44.762;21.516;2023-09-12T09:37:33;6.25;;;3.13;;
57848;SDS011;68645;44.762;21.516;2023-09-12T09:39:59;9.10;;;3.42;;
57848;SDS011;68645;44.762;21.516;2023-09-12T09:42:28;9.70;;;3.30;;
57848;SDS011;68645;44.762;21.516;2023-09-12T09:44:54;16.60;;;13.27;;
57848;SDS011;68645;44.762;21.516;2023-09-12T09:47:20;14.35;;;12.07;;
57848;SDS011;68645;44.762;21.516;2023-09-12T09:49:47;8.10;;;4.25;;
57848;SDS011;68645;44.762;21.516;2023-09-12T09:52:13;7.13;;;4.13;;
57848;SDS011;68645;44.762;21.516;2023-09-12T09:54:45;7.13;;;3.70;;
57848;SDS011;68645;44.762;21.516;2023-09-12T09:57:11;10.02;;;4.15;;
57848;SDS011;68645;44.762;21.516;2023-09-12T09:59:37;6.45;;;3.55;;
57848;SDS011;68645;44.762;21.516;2023-09-12T10:02:03;5.35;;;3.13;;
57848;SDS011;68645;44.762;21.516;2023-09-12T10:04:32;5.57;;;3.80;;
57848;SDS011;68645;44.762;21.516;2023-09-12T10:07:00;8.93;;;3.90;;
57848;SDS011;68645;44.762;21.516;2023-09-12T10:09:26;12.18;;;4.10;;
57848;SDS011;68645;44.762;21.516;2023-09-12T10:11:54;10.05;;;4.13;;
57848;SDS011;68645;44.762;21.516;2023-09-12T10:14:20;10.80;;;3.97;;
57848;SDS011;68645;44.762;21.516;2023-09-12T10:16:48;6.45;;;3.40;;
57848;SDS011;68645;44.762;21.516;2023-09-12T10:22:17;11.20;;;3.85;;
57848;SDS011;68645;44.762;21.516;2023-09-12T10:24:35;8.15;;;3.63;;
57848;SDS011;68645;44.762;21.516;2023-09-12T10:27:02;8.60;;;3.95;;
57848;SDS011;68645;44.762;21.516;2023-09-12T10:29:29;8.68;;;3.70;;
57848;SDS011;68645;44.762;21.516;2023-09-12T10:31:57;12.20;;;5.30;;
57848;SDS011;68645;44.762;21.516;2023-09-12T10:34:24;10.13;;;4.75;;
57848;SDS011;68645;44.762;21.516;2023-09-12T10:36:50;10.80;;;5.15;;
57848;SDS011;68645;44.762;21.516;2023-09-12T10:39:17;8.73;;;4.00;;
57848;SDS011;68645;44.762;21.516;2023-09-12T10:41:45;10.45;;;5.72;;
57848;SDS011;68645;44.762;21.516;2023-09-12T10:44:16;13.15;;;5.05;;
57848;SDS011;68645;44.762;21.516;2023-09-12T10:46:43;11.20;;;4.28;;
57848;SDS011;68645;44.762;21.516;2023-09-12T10:49:10;10.82;;;4.80;;
57848;SDS011;68645;44.762;21.516;2023-09-12T10:51:40;10.85;;;4.93;;
57848;SDS011;68645;44.762;21.516;2023-09-12T10:54:07;12.73;;;5.53;;
57848;SDS011;68645;44.762;21.516;2023-09-12T10:56:34;10.13;;;5.22;;
57848;SDS011;68645;44.762;21.516;2023-09-12T11:01:29;11.60;;;4.30;;
57848;SDS011;68645;44.762;21.516;2023-09-12T11:03:56;10.10;;;3.95;;
57848;SDS011;68645;44.762;21.516;2023-09-12T11:06:24;6.32;;;3.30;;
57848;SDS011;68645;44.762;21.516;2023-09-12T11:11:38;10.13;;;4.57;;
57848;SDS011;68645;44.762;21.516;2023-09-12T11:14:04;9.75;;;3.90;;
57848;SDS011;68645;44.762;21.516;2023-09-12T11:16:31;13.98;;;4.68;;
57848;SDS011;68645;44.762;21.516;2023-09-12T11:19:14;13.45;;;5.80;;
57848;SDS011;68645;44.762;21.516;2023-09-12T11:21:41;9.60;;;4.32;;
57848;SDS011;68645;44.762;21.516;2023-09-12T11:24:07;8.80;;;4.22;;
57848;SDS011;68645;44.762;21.516;2023-09-12T11:26:33;9.30;;;4.15;;
57848;SDS011;68645;44.762;21.516;2023-09-12T11:29:12;12.60;;;4.32;;
57848;SDS011;68645;44.762;21.516;2023-09-12T11:31:39;15.18;;;8.60;;
57848;SDS011;68645;44.762;21.516;2023-09-12T11:34:10;9.20;;;4.55;;
57848;SDS011;68645;44.762;21.516;2023-09-12T11:36:40;13.63;;;4.15;;
57848;SDS011;68645;44.762;21.516;2023-09-12T11:39:22;12.82;;;5.03;;
57848;SDS011;68645;44.762;21.516;2023-09-12T11:41:51;9.52;;;4.57;;
57848;SDS011;68645;44.762;21.516;2023-09-12T11:44:19;12.35;;;5.28;;
57848;SDS011;68645;44.762;21.516;2023-09-12T11:46:47;11.68;;;5.20;;
57848;SDS011;68645;44.762;21.516;2023-09-12T11:49:14;10.15;;;3.90;;
57848;SDS011;68645;44.762;21.516;2023-09-12T11:52:14;7.78;;;3.80;;
57848;SDS011;68645;44.762;21.516;2023-09-12T11:54:32;7.55;;;3.53;;
57848;SDS011;68645;44.762;21.516;2023-09-12T11:56:58;12.48;;;5.30;;
57848;SDS011;68645;44.762;21.516;2023-09-12T11:59:30;16.85;;;6.28;;
57848;SDS011;68645;44.762;21.516;2023-09-12T12:01:57;16.17;;;7.72;;
57848;SDS011;68645;44.762;21.516;2023-09-12T12:04:24;14.45;;;6.18;;
57848;SDS011;68645;44.762;21.516;2023-09-12T12:06:53;11.55;;;3.95;;
57848;SDS011;68645;44.762;21.516;2023-09-12T12:09:19;13.70;;;4.80;;
57848;SDS011;68645;44.762;21.516;2023-09-12T12:11:46;9.55;;;3.92;;
57848;SDS011;68645;44.762;21.516;2023-09-12T12:14:13;11.18;;;5.00;;
57848;SDS011;68645;44.762;21.516;2023-09-12T12:16:43;14.93;;;4.72;;
57848;SDS011;68645;44.762;21.516;2023-09-12T12:19:10;10.00;;;4.22;;
57848;SDS011;68645;44.762;21.516;2023-09-12T12:21:42;10.57;;;4.63;;
57848;SDS011;68645;44.762;21.516;2023-09-12T12:24:13;10.00;;;3.77;;
57848;SDS011;68645;44.762;21.516;2023-09-12T12:26:43;7.00;;;3.40;;
57848;SDS011;68645;44.762;21.516;2023-09-12T12:29:10;13.60;;;4.05;;
57848;SDS011;68645;44.762;21.516;2023-09-12T12:31:37;11.75;;;4.75;;
57848;SDS011;68645;44.762;21.516;2023-09-12T12:34:04;9.80;;;4.47;;
57848;SDS011;68645;44.762;21.516;2023-09-12T12:36:30;12.05;;;4.82;;
57848;SDS011;68645;44.762;21.516;2023-09-12T12:38:57;10.80;;;4.65;;
57848;SDS011;68645;44.762;21.516;2023-09-12T12:41:24;10.48;;;4.07;;
57848;SDS011;68645;44.762;21.516;2023-09-12T12:43:51;9.88;;;4.03;;
57848;SDS011;68645;44.762;21.516;2023-09-12T12:46:18;9.23;;;4.10;;
57848;SDS011;68645;44.762;21.516;2023-09-12T12:48:47;8.63;;;3.60;;
57848;SDS011;68645;44.762;21.516;2023-09-12T12:51:18;9.43;;;3.92;;
57848;SDS011;68645;44.762;21.516;2023-09-12T12:53:48;12.48;;;3.53;;
57848;SDS011;68645;44.762;21.516;2023-09-12T12:56:22;12.55;;;5.18;;
57848;SDS011;68645;44.762;21.516;2023-09-12T12:58:49;8.25;;;3.70;;
57848;SDS011;68645;44.762;21.516;2023-09-12T13:01:16;9.10;;;3.80;;
57848;SDS011;68645;44.762;21.516;2023-09-12T13:03:42;12.40;;;4.65;;
57848;SDS011;68645;44.762;21.516;2023-09-12T13:06:09;10.88;;;3.67;;
57848;SDS011;68645;44.762;21.516;2023-09-12T13:11:06;10.32;;;3.70;;
57848;SDS011;68645;44.762;21.516;2023-09-12T13:13:32;9.52;;;5.75;;
57848;SDS011;68645;44.762;21.516;2023-09-12T13:15:58;6.25;;;3.70;;
57848;SDS011;68645;44.762;21.516;2023-09-12T13:18:25;9.35;;;4.40;;
57848;SDS011;68645;44.762;21.516;2023-09-12T13:20:52;14.35;;;4.88;;
57848;SDS011;68645;44.762;21.516;2023-09-12T13:23:18;13.13;;;4.28;;
57848;SDS011;68645;44.762;21.516;2023-09-12T13:25:45;8.25;;;4.07;;
57848;SDS011;68645;44.762;21.516;2023-09-12T13:28:12;10.73;;;3.85;;
57848;SDS011;68645;44.762;21.516;2023-09-12T13:30:38;9.18;;;4.10;;
57848;SDS011;68645;44.762;21.516;2023-09-12T13:33:04;10.68;;;4.97;;
57848;SDS011;68645;44.762;21.516;2023-09-12T13:35:31;11.20;;;4.30;;
57848;SDS011;68645;44.762;21.516;2023-09-12T13:37:57;10.50;;;4.60;;
57848;SDS011;68645;44.762;21.516;2023-09-12T13:40:23;12.27;;;4.68;;
57848;SDS011;68645;44.762;21.516;2023-09-12T13:42:49;11.98;;;4.40;;
57848;SDS011;68645;44.762;21.516;2023-09-12T13:45:15;9.82;;;4.47;;
57848;SDS011;68645;44.762;21.516;2023-09-12T13:47:42;9.10;;;3.63;;
57848;SDS011;68645;44.762;21.516;2023-09-12T13:50:08;9.85;;;4.40;;
57848;SDS011;68645;44.762;21.516;2023-09-12T13:52:34;9.95;;;4.25;;
57848;SDS011;68645;44.762;21.516;2023-09-12T13:55:01;6.32;;;3.65;;
57848;SDS011;68645;44.762;21.516;2023-09-12T13:57:28;8.73;;;3.63;;
57848;SDS011;68645;44.762;21.516;2023-09-12T13:59:55;8.18;;;3.75;;
57848;SDS011;68645;44.762;21.516;2023-09-12T14:02:21;6.72;;;3.50;;
57848;SDS011;68645;44.762;21.516;2023-09-12T14:04:47;10.65;;;4.50;;
57848;SDS011;68645;44.762;21.516;2023-09-12T14:07:13;13.15;;;4.75;;
57848;SDS011;68645;44.762;21.516;2023-09-12T14:09:39;9.38;;;3.95;;
57848;SDS011;68645;44.762;21.516;2023-09-12T14:12:06;15.00;;;4.45;;
57848;SDS011;68645;44.762;21.516;2023-09-12T14:14:33;16.10;;;5.07;;
57848;SDS011;68645;44.762;21.516;2023-09-12T14:16:59;14.20;;;4.75;;
57848;SDS011;68645;44.762;21.516;2023-09-12T14:19:25;14.63;;;4.20;;
57848;SDS011;68645;44.762;21.516;2023-09-12T14:21:51;11.65;;;4.20;;
57848;SDS011;68645;44.762;21.516;2023-09-12T14:24:17;6.88;;;3.28;;
57848;SDS011;68645;44.762;21.516;2023-09-12T14:26:44;9.27;;;4.88;;
57848;SDS011;68645;44.762;21.516;2023-09-12T14:29:10;9.75;;;4.38;;
57848;SDS011;68645;44.762;21.516;2023-09-12T14:31:36;12.57;;;5.32;;
57848;SDS011;68645;44.762;21.516;2023-09-12T14:34:03;13.32;;;6.15;;
57848;SDS011;68645;44.762;21.516;2023-09-12T14:36:30;14.88;;;5.03;;
57848;SDS011;68645;44.762;21.516;2023-09-12T14:38:56;8.07;;;4.00;;
57848;SDS011;68645;44.762;21.516;2023-09-12T14:41:23;9.32;;;3.95;;
57848;SDS011;68645;44.762;21.516;2023-09-12T14:43:49;12.60;;;4.30;;
57848;SDS011;68645;44.762;21.516;2023-09-12T14:46:15;12.70;;;5.15;;
57848;SDS011;68645;44.762;21.516;2023-09-12T14:48:41;8.23;;;4.25;;
57848;SDS011;68645;44.762;21.516;2023-09-12T14:51:09;15.63;;;6.75;;
57848;SDS011;68645;44.762;21.516;2023-09-12T14:53:35;11.52;;;6.30;;